Time;durP1;ratioP1;P1;durP2;ratioP2;P2;SDS_P1;SDS_P2;PMS_P1;PMS_P2;Temp;Humidity;BMP_temperature;BMP_pressure;BME280_temperature;BME280_humidity;BME280_pressure;Samples;Min_cycle;Max_cycle;Signal;HPM_P1;HPM_P2
2023/06/06 00:01:13;;;;;;;1.10;0.75;;;;;;;;;;12984446;19;20026;-65
2023/06/06 00:05:31;;;;;;;2.05;1.00;;;;;;;;;;12984879;19;20478;-64
2023/06/06 00:09:49;;;;;;;1.45;0.90;;;;;;;;;;12985067;19;20002;-64
2023/06/06 00:14:07;;;;;;;1.73;0.88;;;;;;;;;;12984399;19;20010;-64
2023/06/06 00:18:27;;;;;;;1.63;1.02;;;;;;;;;;12982470;19;20023;-64
2023/06/06 00:22:48;;;;;;;1.52;0.77;;;;;;;;;;12984258;19;20331;-66
2023/06/06 00:27:06;;;;;;;1.52;1.13;;;;;;;;;;12982577;19;20383;-64
2023/06/06 00:31:25;;;;;;;1.50;1.00;;;;;;;;;;12984169;19;20013;-64
2023/06/06 00:35:43;;;;;;;4.35;1.00;;;;;;;;;;12983053;19;20729;-65
2023/06/06 00:40:04;;;;;;;3.35;1.13;;;;;;;;;;12982614;19;20022;-64
2023/06/06 00:44:23;;;;;;;1.13;0.93;;;;;;;;;;12982696;19;20015;-63
2023/06/06 00:48:41;;;;;;;;;;;;;;;;;;12983621;19;20014;-64
2023/06/06 00:52:59;;;;;;;1.90;1.25;;;;;;;;;;12982991;19;20420;-64
2023/06/06 00:57:18;;;;;;;1.00;0.90;;;;;;;;;;12980104;19;20002;-64
2023/06/06 01:01:39;;;;;;;1.50;0.95;;;;;;;;;;12983231;19;20048;-64
2023/06/06 01:05:56;;;;;;;2.42;1.13;;;;;;;;;;12983240;19;20808;-63
2023/06/06 01:10:15;;;;;;;0.98;0.70;;;;;;;;;;12979150;19;20010;-64
2023/06/06 01:14:55;;;;;;;1.40;1.00;;;;;;;;;;12981442;19;20014;-63
2023/06/06 01:19:20;;;;;;;3.20;1.10;;;;;;;;;;12977306;19;20017;-63
2023/06/06 01:23:38;;;;;;;1.17;0.77;;;;;;;;;;12980623;19;20023;-63
2023/06/06 01:27:56;;;;;;;1.73;1.17;;;;;;;;;;12980012;19;20017;-65
2023/06/06 01:32:39;;;;;;;4.00;1.10;;;;;;;;;;12979345;19;20031;-63
2023/06/06 01:37:11;;;;;;;1.73;0.90;;;;;;;;;;12978315;19;20449;-63
2023/06/06 01:41:32;;;;;;;3.20;0.80;;;;;;;;;;12980810;19;20360;-64
2023/06/06 01:45:51;;;;;;;1.63;0.70;;;;;;;;;;12979493;19;20017;-63
2023/06/06 01:50:10;;;;;;;4.75;1.15;;;;;;;;;;12977668;19;20027;-63
2023/06/06 01:54:28;;;;;;;1.83;1.40;;;;;;;;;;12978527;19;20023;-65
2023/06/06 01:58:48;;;;;;;2.22;0.93;;;;;;;;;;12978811;19;20014;-64
2023/06/06 02:03:06;;;;;;;1.30;0.88;;;;;;;;;;12977557;19;20011;-63
2023/06/06 02:07:25;;;;;;;1.83;1.10;;;;;;;;;;12977551;19;20361;-63
2023/06/06 02:11:43;;;;;;;8.18;1.00;;;;;;;;;;12978882;19;20017;-63
2023/06/06 02:16:02;;;;;;;2.83;1.05;;;;;;;;;;12976858;19;20022;-63
2023/06/06 02:20:21;;;;;;;1.13;0.90;;;;;;;;;;12978203;19;20060;-66
2023/06/06 02:24:42;;;;;;;1.25;0.63;;;;;;;;;;12976920;19;20391;-65
2023/06/06 02:28:59;;;;;;;4.95;1.15;;;;;;;;;;12976922;19;20021;-63
2023/06/06 02:33:19;;;;;;;0.95;0.80;;;;;;;;;;12988197;19;20548;-63
2023/06/06 02:37:38;;;;;;;0.88;0.65;;;;;;;;;;12989817;19;20019;-63
2023/06/06 02:41:56;;;;;;;3.25;1.00;;;;;;;;;;12988962;19;20014;-63
2023/06/06 02:46:15;;;;;;;3.60;1.05;;;;;;;;;;12987895;19;20014;-62
2023/06/06 02:50:33;;;;;;;2.08;1.10;;;;;;;;;;12988905;19;20018;-63
2023/06/06 02:54:51;;;;;;;1.90;0.88;;;;;;;;;;12987349;19;20486;-63
2023/06/06 02:59:09;;;;;;;0.93;0.77;;;;;;;;;;12987412;19;20014;-63
2023/06/06 03:03:27;;;;;;;2.83;0.77;;;;;;;;;;12988791;19;20014;-63
2023/06/06 03:07:47;;;;;;;1.15;0.68;;;;;;;;;;12988140;19;20023;-63
2023/06/06 03:12:05;;;;;;;3.42;1.17;;;;;;;;;;12987446;19;20022;-63
2023/06/06 03:16:26;;;;;;;3.83;1.10;;;;;;;;;;12988156;19;20045;-63
2023/06/06 03:20:45;;;;;;;2.05;1.30;;;;;;;;;;12987146;19;20017;-64
2023/06/06 03:25:04;;;;;;;2.10;1.08;;;;;;;;;;12986491;19;20025;-62
2023/06/06 03:29:22;;;;;;;2.85;1.15;;;;;;;;;;12986415;19;20569;-63
2023/06/06 03:33:39;;;;;;;1.80;1.05;;;;;;;;;;12986653;19;20468;-63
2023/06/06 03:37:58;;;;;;;;;;;;;;;;;;12987072;19;20010;-63
2023/06/06 03:42:15;;;;;;;;;;;;;;;;;;12984815;19;19968;-64
2023/06/06 03:46:34;;;;;;;2.67;1.23;;;;;;;;;;12984980;19;19918;-63
2023/06/06 03:50:52;;;;;;;5.35;0.90;;;;;;;;;;12985980;19;20018;-63
2023/06/06 03:55:10;;;;;;;1.83;1.17;;;;;;;;;;12984103;19;20025;-64
2023/06/06 03:59:30;;;;;;;3.10;1.08;;;;;;;;;;12986050;19;20434;-62
2023/06/06 04:03:47;;;;;;;;;;;;;;;;;;12986730;19;20478;-63
2023/06/06 04:08:08;;;;;;;1.45;1.00;;;;;;;;;;12983973;19;19918;-63
2023/06/06 04:12:26;;;;;;;3.22;0.77;;;;;;;;;;12985147;19;20003;-64
2023/06/06 04:16:43;;;;;;;2.88;1.15;;;;;;;;;;12984133;19;20366;-64
2023/06/06 04:21:01;;;;;;;;;;;;;;;;;;12983929;19;20014;-64
2023/06/06 04:25:20;;;;;;;3.08;1.40;;;;;;;;;;12983662;19;19938;-63
2023/06/06 04:29:40;;;;;;;1.90;1.08;;;;;;;;;;12983452;19;20022;-64
2023/06/06 04:34:03;;;;;;;3.40;1.48;;;;;;;;;;12983240;19;20067;-64
2023/06/06 04:38:23;;;;;;;2.38;1.30;;;;;;;;;;12983068;19;20500;-64
2023/06/06 04:42:41;;;;;;;2.85;1.10;;;;;;;;;;12983264;19;20018;-64
2023/06/06 04:47:03;;;;;;;8.27;1.33;;;;;;;;;;12982682;19;20018;-64
2023/06/06 04:51:33;;;;;;;4.38;1.48;;;;;;;;;;12982668;19;20042;-64
2023/06/06 04:55:55;;;;;;;1.52;1.00;;;;;;;;;;12980315;19;20018;-64
2023/06/06 05:00:16;;;;;;;3.58;1.20;;;;;;;;;;12981515;19;20011;-63
2023/06/06 05:04:35;;;;;;;1.55;1.00;;;;;;;;;;12981035;19;20291;-64
2023/06/06 05:08:54;;;;;;;2.85;0.90;;;;;;;;;;12981408;19;20114;-63
2023/06/06 05:13:12;;;;;;;3.15;1.00;;;;;;;;;;12978843;19;20022;-64
2023/06/06 05:17:30;;;;;;;3.67;0.93;;;;;;;;;;12981188;19;20034;-64
2023/06/06 05:21:48;;;;;;;1.95;1.00;;;;;;;;;;12980870;19;20019;-64
2023/06/06 05:26:07;;;;;;;9.30;1.27;;;;;;;;;;12979459;19;20401;-64
2023/06/06 05:30:26;;;;;;;2.90;1.13;;;;;;;;;;12980137;19;20015;-64
2023/06/06 05:34:45;;;;;;;2.10;1.10;;;;;;;;;;12978917;19;20014;-64
2023/06/06 05:39:03;;;;;;;1.52;1.02;;;;;;;;;;12980854;19;20010;-64
2023/06/06 05:43:22;;;;;;;2.38;1.38;;;;;;;;;;12981778;19;20342;-65
2023/06/06 05:47:39;;;;;;;2.17;1.30;;;;;;;;;;12979790;19;20452;-66
2023/06/06 05:51:58;;;;;;;2.58;0.95;;;;;;;;;;12979569;19;20537;-64
2023/06/06 05:56:17;;;;;;;3.40;1.30;;;;;;;;;;12977753;19;20017;-64
2023/06/06 06:00:38;;;;;;;1.05;0.93;;;;;;;;;;12976707;19;20029;-65
2023/06/06 06:04:56;;;;;;;1.90;1.00;;;;;;;;;;12983429;19;20345;-64
2023/06/06 06:09:16;;;;;;;5.20;1.02;;;;;;;;;;12990125;19;20383;-64
2023/06/06 06:13:34;;;;;;;1.55;1.10;;;;;;;;;;12991499;19;20015;-64
2023/06/06 06:17:52;;;;;;;1.50;1.08;;;;;;;;;;12990929;19;20002;-64
2023/06/06 06:22:10;;;;;;;2.65;1.50;;;;;;;;;;12989702;19;20010;-65
2023/06/06 06:26:28;;;;;;;3.83;0.95;;;;;;;;;;12989473;19;20122;-65
2023/06/06 06:30:47;;;;;;;2.55;1.25;;;;;;;;;;12990052;19;20343;-65
2023/06/06 06:35:06;;;;;;;4.65;1.35;;;;;;;;;;12988320;19;20357;-64
2023/06/06 06:39:24;;;;;;;1.83;1.08;;;;;;;;;;12991178;19;20025;-64
2023/06/06 06:43:43;;;;;;;1.77;1.13;;;;;;;;;;12990288;19;20381;-64
2023/06/06 06:48:02;;;;;;;1.15;1.00;;;;;;;;;;12988684;19;20037;-64
2023/06/06 06:52:20;;;;;;;1.67;1.05;;;;;;;;;;12989425;19;21314;-64
2023/06/06 06:56:42;;;;;;;1.80;1.08;;;;;;;;;;12987134;19;20043;-65
2023/06/06 07:01:02;;;;;;;2.97;1.40;;;;;;;;;;12988976;19;20046;-64
2023/06/06 07:05:19;;;;;;;2.25;1.55;;;;;;;;;;12986568;19;20374;-64
2023/06/06 07:09:38;;;;;;;11.38;1.38;;;;;;;;;;12987567;19;20014;-64
2023/06/06 07:13:56;;;;;;;3.22;1.20;;;;;;;;;;12987208;19;20014;-64
2023/06/06 07:18:37;;;;;;;2.83;1.27;;;;;;;;;;13030258;19;20406;-63
2023/06/06 07:22:56;;;;;;;1.80;1.30;;;;;;;;;;13045708;19;20474;-63
2023/06/06 07:27:18;;;;;;;1.50;1.08;;;;;;;;;;13044500;19;20469;-63
2023/06/06 07:31:38;;;;;;;3.70;1.23;;;;;;;;;;13044673;19;20462;-63
2023/06/06 07:35:56;;;;;;;2.55;1.60;;;;;;;;;;13042015;19;20007;-63
2023/06/06 07:40:16;;;;;;;2.42;1.10;;;;;;;;;;13043558;19;20041;-63
2023/06/06 07:44:35;;;;;;;2.53;1.20;;;;;;;;;;13044463;19;20046;-63
2023/06/06 07:48:53;;;;;;;2.92;1.20;;;;;;;;;;13043840;19;20762;-62
2023/06/06 07:53:11;;;;;;;2.72;1.48;;;;;;;;;;13043734;19;20018;-62
2023/06/06 07:57:30;;;;;;;3.95;1.15;;;;;;;;;;13043924;19;20537;-63
2023/06/06 08:01:49;;;;;;;3.08;1.23;;;;;;;;;;13044035;19;20014;-62
2023/06/06 08:06:08;;;;;;;3.78;1.38;;;;;;;;;;13043059;19;20013;-63
2023/06/06 08:10:28;;;;;;;3.30;1.42;;;;;;;;;;13042826;19;20014;-63
2023/06/06 08:14:46;;;;;;;2.25;1.17;;;;;;;;;;13041747;19;20031;-63
2023/06/06 08:19:04;;;;;;;2.03;1.17;;;;;;;;;;13041357;19;20014;-64
2023/06/06 08:23:23;;;;;;;1.23;0.95;;;;;;;;;;13042210;19;20010;-64
2023/06/06 08:27:42;;;;;;;1.70;1.23;;;;;;;;;;13018039;19;20010;-64
2023/06/06 08:32:01;;;;;;;3.05;1.70;;;;;;;;;;12991299;19;20015;-64
2023/06/06 08:36:19;;;;;;;2.55;1.10;;;;;;;;;;12990613;19;20044;-64
2023/06/06 08:40:38;;;;;;;2.58;1.30;;;;;;;;;;12991673;19;20018;-65
2023/06/06 08:44:59;;;;;;;1.95;1.17;;;;;;;;;;12990585;19;20019;-64
2023/06/06 08:49:19;;;;;;;5.50;1.35;;;;;;;;;;12990383;19;20355;-64
2023/06/06 08:53:37;;;;;;;2.65;1.27;;;;;;;;;;12990513;19;20025;-64
2023/06/06 08:57:56;;;;;;;2.78;1.30;;;;;;;;;;12989085;19;20010;-63
2023/06/06 09:02:15;;;;;;;2.03;1.27;;;;;;;;;;12989341;19;20377;-63
2023/06/06 09:06:34;;;;;;;2.50;0.90;;;;;;;;;;12989498;19;20002;-65
2023/06/06 09:10:53;;;;;;;2.65;1.70;;;;;;;;;;12989717;19;20107;-64
2023/06/06 09:15:12;;;;;;;2.40;1.38;;;;;;;;;;12987095;19;20018;-65
2023/06/06 09:19:31;;;;;;;1.88;1.23;;;;;;;;;;12988677;19;20368;-63
2023/06/06 09:23:53;;;;;;;2.08;1.17;;;;;;;;;;12988860;19;20015;-63
2023/06/06 09:28:12;;;;;;;4.85;1.15;;;;;;;;;;12988342;19;20013;-63
2023/06/06 09:32:30;;;;;;;2.65;1.50;;;;;;;;;;12988883;19;20367;-64
2023/06/06 09:36:51;;;;;;;1.92;1.20;;;;;;;;;;12988219;19;20359;-65
2023/06/06 09:41:10;;;;;;;3.20;0.80;;;;;;;;;;12983642;19;20011;-65
2023/06/06 09:45:27;;;;;;;2.15;0.90;;;;;;;;;;12987569;19;20006;-66
2023/06/06 09:49:45;;;;;;;;;;;;;;;;;;12987879;19;20007;-64
2023/06/06 09:54:03;;;;;;;3.45;1.38;;;;;;;;;;12986155;19;19915;-64
2023/06/06 09:58:22;;;;;;;1.85;1.20;;;;;;;;;;12986434;19;20030;-65
2023/06/06 10:02:43;;;;;;;4.70;1.20;;;;;;;;;;12986450;19;20011;-64
2023/06/06 10:07:04;;;;;;;2.65;1.65;;;;;;;;;;12983903;19;20018;-64
2023/06/06 10:11:22;;;;;;;6.72;1.65;;;;;;;;;;12985000;19;20022;-65
2023/06/06 10:15:40;;;;;;;;;;;;;;;;;;12985791;19;20015;-65
2023/06/06 10:20:05;;;;;;;2.42;1.20;;;;;;;;;;12985848;19;20425;-64
2023/06/06 10:24:23;;;;;;;2.28;1.30;;;;;;;;;;12984192;19;20011;-63
2023/06/06 10:28:58;;;;;;;2.25;1.10;;;;;;;;;;12985625;19;20432;-64
2023/06/06 10:33:32;;;;;;;3.90;1.40;;;;;;;;;;12984541;19;20015;-63
2023/06/06 10:38:09;;;;;;;2.55;1.42;;;;;;;;;;12983171;19;20026;-63
2023/06/06 10:42:40;;;;;;;2.22;1.38;;;;;;;;;;12984363;19;20476;-63
2023/06/06 10:47:20;;;;;;;2.53;1.23;;;;;;;;;;12982378;19;20022;-63
2023/06/06 10:51:39;;;;;;;2.92;1.58;;;;;;;;;;12983533;19;20015;-63
2023/06/06 10:55:59;;;;;;;1.92;1.17;;;;;;;;;;12983389;19;20011;-63
2023/06/06 11:00:17;;;;;;;7.25;1.30;;;;;;;;;;12981622;19;20014;-63
2023/06/06 11:04:38;;;;;;;2.17;1.20;;;;;;;;;;12981923;19;20015;-63
2023/06/06 11:08:57;;;;;;;7.30;1.23;;;;;;;;;;12983630;19;20505;-62
2023/06/06 11:13:26;;;;;;;6.45;1.55;;;;;;;;;;12982917;19;20010;-63
2023/06/06 11:17:47;;;;;;;7.43;1.70;;;;;;;;;;12981558;19;20017;-63
2023/06/06 11:22:05;;;;;;;3.45;1.45;;;;;;;;;;12982822;19;20022;-63
2023/06/06 11:26:27;;;;;;;5.22;2.38;;;;;;;;;;12982585;19;20391;-64
2023/06/06 11:30:47;;;;;;;3.05;1.67;;;;;;;;;;12982397;19;20025;-63
2023/06/06 11:35:08;;;;;;;3.78;2.28;;;;;;;;;;12980940;19;20004;-65
2023/06/06 11:39:28;;;;;;;2.80;1.70;;;;;;;;;;12981603;19;20025;-63
2023/06/06 11:43:50;;;;;;;3.40;1.40;;;;;;;;;;12980812;19;20018;-63
2023/06/06 11:48:24;;;;;;;3.60;1.55;;;;;;;;;;12978125;19;20041;-63
2023/06/06 11:52:44;;;;;;;2.83;1.70;;;;;;;;;;12981339;19;20022;-64
2023/06/06 11:57:05;;;;;;;3.50;1.70;;;;;;;;;;12979318;19;20018;-63
2023/06/06 12:01:24;;;;;;;2.67;1.85;;;;;;;;;;12979073;19;20506;-63
2023/06/06 12:05:43;;;;;;;8.35;2.53;;;;;;;;;;12993899;19;20346;-62
2023/06/06 12:10:02;;;;;;;3.97;2.05;;;;;;;;;;12991947;19;20018;-63
2023/06/06 12:14:25;;;;;;;5.38;1.98;;;;;;;;;;12992934;19;20029;-63
2023/06/06 12:18:47;;;;;;;7.25;1.45;;;;;;;;;;12991874;19;20015;-63
2023/06/06 12:23:05;;;;;;;7.97;2.20;;;;;;;;;;12992062;19;20017;-63
2023/06/06 12:27:26;;;;;;;9.32;2.70;;;;;;;;;;12991001;19;21063;-63
2023/06/06 12:31:49;;;;;;;3.10;2.30;;;;;;;;;;12992002;19;20014;-63
2023/06/06 12:36:19;;;;;;;5.22;2.55;;;;;;;;;;12990343;19;20940;-63
2023/06/06 12:40:37;;;;;;;5.18;3.00;;;;;;;;;;12991973;19;20031;-63
2023/06/06 12:44:56;;;;;;;7.60;2.80;;;;;;;;;;12989365;19;20022;-63
2023/06/06 12:49:14;;;;;;;;;;;;;;;;;;12991074;19;20022;-63
2023/06/06 12:53:32;;;;;;;7.22;2.80;;;;;;;;;;12991249;19;19926;-63
2023/06/06 12:57:50;;;;;;;5.70;3.00;;;;;;;;;;12989677;19;20010;-65
2023/06/06 13:02:10;;;;;;;6.15;3.22;;;;;;;;;;12989655;19;20426;-64
2023/06/06 13:06:29;;;;;;;6.30;2.58;;;;;;;;;;12987209;19;20388;-64
2023/06/06 13:10:46;;;;;;;4.53;2.40;;;;;;;;;;12991064;19;20038;-64
2023/06/06 13:15:05;;;;;;;;;;;;;;;;;;12988500;19;20029;-64
2023/06/06 13:19:22;;;;;;;10.68;3.05;;;;;;;;;;12988930;19;20338;-64
2023/06/06 13:23:41;;;;;;;3.45;2.15;;;;;;;;;;12988404;19;20023;-64
2023/06/06 13:27:58;;;;;;;3.10;2.10;;;;;;;;;;12987650;19;20015;-65
2023/06/06 13:32:16;;;;;;;4.75;2.30;;;;;;;;;;12986022;19;20038;-65
2023/06/06 13:36:35;;;;;;;3.72;2.45;;;;;;;;;;12986867;19;20030;-66
2023/06/06 13:40:54;;;;;;;7.55;2.47;;;;;;;;;;12987381;19;20014;-66
2023/06/06 13:45:12;;;;;;;5.25;2.78;;;;;;;;;;12986509;19;20014;-66
2023/06/06 13:49:29;;;;;;;4.68;2.80;;;;;;;;;;12986429;19;20021;-68
2023/06/06 13:53:48;;;;;;;7.05;3.55;;;;;;;;;;12986530;19;20015;-69
2023/06/06 13:58:08;;;;;;;6.05;3.22;;;;;;;;;;12982353;19;20018;-69
2023/06/06 14:02:29;;;;;;;6.68;2.50;;;;;;;;;;12984816;19;20499;-68
2023/06/06 14:06:50;;;;;;;5.88;3.05;;;;;;;;;;12984234;19;20011;-68
2023/06/06 14:11:14;;;;;;;7.03;2.50;;;;;;;;;;12984528;19;20015;-68
2023/06/06 14:15:32;;;;;;;7.47;2.97;;;;;;;;;;12981844;19;20017;-68
2023/06/06 14:19:51;;;;;;;13.02;2.70;;;;;;;;;;12983774;19;20478;-68
2023/06/06 14:24:10;;;;;;;3.92;2.45;;;;;;;;;;12982915;19;20009;-68
2023/06/06 14:28:28;;;;;;;4.60;1.83;;;;;;;;;;12983786;19;20022;-68
2023/06/06 14:32:47;;;;;;;3.63;2.40;;;;;;;;;;12983127;19;20026;-68
2023/06/06 14:37:06;;;;;;;;;;;;;;;;;;12982809;19;20014;-68
2023/06/06 14:41:25;;;;;;;6.28;2.22;;;;;;;;;;12983512;19;19926;-68
2023/06/06 14:45:43;;;;;;;5.18;2.58;;;;;;;;;;12983499;19;20015;-67
2023/06/06 14:50:02;;;;;;;5.68;2.20;;;;;;;;;;12983010;19;20049;-68
2023/06/06 14:54:21;;;;;;;5.90;2.72;;;;;;;;;;12983300;19;20030;-69
2023/06/06 14:58:42;;;;;;;3.28;2.13;;;;;;;;;;12980893;19;20039;-67
2023/06/06 15:03:01;;;;;;;4.95;2.22;;;;;;;;;;12982573;19;20006;-68
2023/06/06 15:07:18;;;;;;;;;;;;;;;;;;12980421;19;20054;-68
2023/06/06 15:11:36;;;;;;;2.50;1.73;;;;;;;;;;12980211;19;19931;-68
2023/06/06 15:15:54;;;;;;;2.92;2.03;;;;;;;;;;12980553;19;20018;-68
2023/06/06 15:20:14;;;;;;;6.20;2.45;;;;;;;;;;12980242;19;20030;-68
2023/06/06 15:24:32;;;;;;;4.13;2.30;;;;;;;;;;12979893;19;20538;-68
2023/06/06 15:28:51;;;;;;;3.30;2.33;;;;;;;;;;12980332;19;20070;-67
2023/06/06 15:33:10;;;;;;;4.25;3.03;;;;;;;;;;12979388;19;20014;-67
2023/06/06 15:37:27;;;;;;;3.92;2.83;;;;;;;;;;12983962;19;20025;-67
2023/06/06 15:41:46;;;;;;;4.05;2.95;;;;;;;;;;12992844;19;20130;-66
2023/06/06 15:46:03;;;;;;;3.50;2.30;;;;;;;;;;12992154;19;20009;-67
2023/06/06 15:50:21;;;;;;;2.50;1.52;;;;;;;;;;12991796;19;20042;-67
2023/06/06 15:54:39;;;;;;;4.22;2.08;;;;;;;;;;12991944;19;20013;-67
2023/06/06 15:59:01;;;;;;;2.67;2.00;;;;;;;;;;12990209;19;20500;-66
2023/06/06 16:03:19;;;;;;;3.85;2.25;;;;;;;;;;12991268;19;20328;-66
2023/06/06 16:07:37;;;;;;;;;;;;;;;;;;12991632;19;20027;-67
2023/06/06 16:11:55;;;;;;;2.42;1.75;;;;;;;;;;12991452;19;19922;-66
2023/06/06 16:16:14;;;;;;;3.50;2.17;;;;;;;;;;12989758;19;20034;-66
2023/06/06 16:20:32;;;;;;;2.83;1.70;;;;;;;;;;12991180;19;20371;-65
2023/06/06 16:24:52;;;;;;;2.22;1.75;;;;;;;;;;12990910;19;20423;-67
2023/06/06 16:29:11;;;;;;;2.47;1.70;;;;;;;;;;12989267;19;20031;-65
2023/06/06 16:33:32;;;;;;;3.03;1.65;;;;;;;;;;12989448;19;20014;-66
2023/06/06 16:37:49;;;;;;;1.58;1.48;;;;;;;;;;12988746;19;20010;-66
2023/06/06 16:42:08;;;;;;;3.72;2.25;;;;;;;;;;12988064;19;20014;-65
2023/06/06 16:46:29;;;;;;;4.60;1.90;;;;;;;;;;12989808;19;20011;-66
2023/06/06 16:50:48;;;;;;;2.80;1.80;;;;;;;;;;12988378;19;20398;-65
2023/06/06 16:55:08;;;;;;;3.38;2.10;;;;;;;;;;12988162;19;20015;-66
2023/06/06 16:59:26;;;;;;;4.18;2.40;;;;;;;;;;12987950;19;20006;-66
2023/06/06 17:03:44;;;;;;;3.60;2.05;;;;;;;;;;12987916;19;20035;-65
2023/06/06 17:08:03;;;;;;;4.05;2.20;;;;;;;;;;12987565;19;20095;-65
2023/06/06 17:12:22;;;;;;;7.25;2.90;;;;;;;;;;12987445;19;20026;-66
2023/06/06 17:16:40;;;;;;;5.82;3.75;;;;;;;;;;12984340;19;20470;-66
2023/06/06 17:21:07;;;;;;;9.80;5.68;;;;;;;;;;12986589;19;20464;-65
2023/06/06 17:25:25;;;;;;;10.15;6.15;;;;;;;;;;12986272;19;20034;-66
2023/06/06 17:30:05;;;;;;;7.47;4.20;;;;;;;;;;12986268;19;20021;-65
2023/06/06 17:34:24;;;;;;;7.47;4.38;;;;;;;;;;12986489;19;20166;-66
2023/06/06 17:38:43;;;;;;;8.70;4.18;;;;;;;;;;12985879;19;20014;-66
2023/06/06 17:43:01;;;;;;;10.07;4.60;;;;;;;;;;12985698;19;20524;-67
2023/06/06 17:47:19;;;;;;;;;;;;;;;;;;12987822;19;20018;-65
2023/06/06 17:51:37;;;;;;;6.75;3.67;;;;;;;;;;12986868;19;20003;-65
2023/06/06 17:55:56;;;;;;;5.22;3.35;;;;;;;;;;12985734;19;20390;-66
2023/06/06 18:00:15;;;;;;;3.97;2.65;;;;;;;;;;12981681;19;20015;-64
2023/06/06 18:04:34;;;;;;;6.85;3.53;;;;;;;;;;12984738;19;20011;-65
2023/06/06 18:08:52;;;;;;;6.28;3.05;;;;;;;;;;12982014;19;20014;-64
2023/06/06 18:13:12;;;;;;;4.18;2.90;;;;;;;;;;12983365;19;20449;-66
2023/06/06 18:17:33;;;;;;;8.35;4.20;;;;;;;;;;12983545;19;20006;-64
2023/06/06 18:21:52;;;;;;;12.98;7.10;;;;;;;;;;12983727;19;20015;-65
2023/06/06 18:26:10;;;;;;;;;;;;;;;;;;12983458;19;20014;-66
2023/06/06 18:30:29;;;;;;;10.48;4.68;;;;;;;;;;12984170;19;20396;-66
2023/06/06 18:34:49;;;;;;;7.13;3.88;;;;;;;;;;12984706;19;20104;-66
2023/06/06 18:39:07;;;;;;;8.32;3.47;;;;;;;;;;12982179;19;20014;-65
2023/06/06 18:43:25;;;;;;;6.72;2.97;;;;;;;;;;12983305;19;20018;-66
2023/06/06 18:47:43;;;;;;;4.00;2.67;;;;;;;;;;12982557;19;20367;-65
2023/06/06 18:52:03;;;;;;;3.55;2.53;;;;;;;;;;12982093;19;20014;-64
2023/06/06 18:56:24;;;;;;;5.35;2.40;;;;;;;;;;12981928;19;20380;-65
2023/06/06 19:00:43;;;;;;;3.95;3.28;;;;;;;;;;12981617;19;20074;-65
2023/06/06 19:05:02;;;;;;;4.75;2.65;;;;;;;;;;12981830;19;20600;-66
2023/06/06 19:09:21;;;;;;;5.10;2.83;;;;;;;;;;12981839;19;20015;-67
2023/06/06 19:13:39;;;;;;;6.07;2.80;;;;;;;;;;12980893;19;20626;-65
2023/06/06 19:17:57;;;;;;;;;;;;;;;;;;12981122;19;20465;-65
2023/06/06 19:22:17;;;;;;;4.72;3.03;;;;;;;;;;12981844;19;20279;-64
2023/06/06 19:26:35;;;;;;;6.03;4.22;;;;;;;;;;12981511;19;20022;-66
2023/06/06 19:30:55;;;;;;;;;;;;;;;;;;12981271;19;20898;-65
2023/06/06 19:35:14;;;;;;;9.30;3.95;;;;;;;;;;12979877;19;20390;-66
2023/06/06 19:39:38;;;;;;;4.78;2.80;;;;;;;;;;12979704;19;20020;-66
2023/06/06 19:43:57;;;;;;;6.07;3.05;;;;;;;;;;12979720;19;20015;-66
2023/06/06 19:48:16;;;;;;;5.05;2.97;;;;;;;;;;12979288;19;20040;-65
2023/06/06 19:52:34;;;;;;;9.95;4.03;;;;;;;;;;12979275;19;20010;-66
2023/06/06 19:56:53;;;;;;;6.07;3.95;;;;;;;;;;12978903;19;20478;-65
2023/06/06 20:01:11;;;;;;;6.30;3.90;;;;;;;;;;12978242;19;20052;-65
2023/06/06 20:05:29;;;;;;;7.88;4.13;;;;;;;;;;12978558;19;20027;-65
2023/06/06 20:09:47;;;;;;;5.75;3.72;;;;;;;;;;12979112;19;20049;-66
2023/06/06 20:14:06;;;;;;;5.38;3.35;;;;;;;;;;12978356;19;20034;-65
2023/06/06 20:18:24;;;;;;;5.60;3.80;;;;;;;;;;12978220;19;20070;-66
2023/06/06 20:22:45;;;;;;;6.07;3.15;;;;;;;;;;12980696;19;20025;-66
2023/06/06 20:27:13;;;;;;;5.53;3.38;;;;;;;;;;12990030;19;20074;-66
2023/06/06 20:31:31;;;;;;;8.85;3.88;;;;;;;;;;12991189;19;20022;-66
2023/06/06 20:35:51;;;;;;;5.97;3.78;;;;;;;;;;12990753;19;20018;-66
2023/06/06 20:40:22;;;;;;;7.88;3.70;;;;;;;;;;12989293;19;20017;-66
2023/06/06 20:44:40;;;;;;;5.95;3.60;;;;;;;;;;12990474;19;20018;-66
2023/06/06 20:48:58;;;;;;;8.32;3.55;;;;;;;;;;12989735;19;20018;-66
2023/06/06 20:53:21;;;;;;;4.72;3.63;;;;;;;;;;12989864;19;20040;-66
2023/06/06 20:57:41;;;;;;;5.45;3.47;;;;;;;;;;12989243;19;20023;-66
2023/06/06 21:01:59;;;;;;;7.10;4.13;;;;;;;;;;12990294;19;20496;-66
2023/06/06 21:06:17;;;;;;;6.60;3.70;;;;;;;;;;12990140;19;20018;-66
2023/06/06 21:10:35;;;;;;;7.20;3.88;;;;;;;;;;12988660;19;20026;-68
2023/06/06 21:14:53;;;;;;;4.82;3.13;;;;;;;;;;12988216;19;20410;-66
2023/06/06 21:19:10;;;;;;;8.27;4.20;;;;;;;;;;12987519;19;20350;-66
2023/06/06 21:23:29;;;;;;;10.43;3.95;;;;;;;;;;12988820;19;20010;-66
2023/06/06 21:27:47;;;;;;;5.45;3.85;;;;;;;;;;12988302;19;20018;-66
2023/06/06 21:32:08;;;;;;;8.75;3.42;;;;;;;;;;12987668;19;20510;-66
2023/06/06 21:36:27;;;;;;;4.65;3.15;;;;;;;;;;12988375;19;20026;-66
2023/06/06 21:40:47;;;;;;;11.20;3.80;;;;;;;;;;12987564;19;20303;-66
2023/06/06 21:45:06;;;;;;;4.43;2.85;;;;;;;;;;12986718;19;20398;-68
2023/06/06 21:49:24;;;;;;;6.28;3.60;;;;;;;;;;12987382;19;20014;-65
2023/06/06 21:53:41;;;;;;;;;;;;;;;;;;12987682;19;20018;-66
2023/06/06 21:57:59;;;;;;;5.07;2.55;;;;;;;;;;12985602;19;19922;-65
2023/06/06 22:02:20;;;;;;;6.97;3.58;;;;;;;;;;12983223;19;20031;-66
2023/06/06 22:06:39;;;;;;;5.15;3.08;;;;;;;;;;12985933;19;20015;-65
2023/06/06 22:10:58;;;;;;;5.25;3.75;;;;;;;;;;12985517;19;20508;-66
2023/06/06 22:15:16;;;;;;;4.03;2.92;;;;;;;;;;12983719;19;20082;-65
2023/06/06 22:19:35;;;;;;;5.25;3.10;;;;;;;;;;12985424;19;20478;-65
2023/06/06 22:23:54;;;;;;;5.90;3.45;;;;;;;;;;12974316;19;20014;-66
2023/06/06 22:28:12;;;;;;;5.45;3.00;;;;;;;;;;12980775;19;20022;-65
2023/06/06 22:32:30;;;;;;;5.60;2.70;;;;;;;;;;12984397;19;20014;-66
2023/06/06 22:36:50;;;;;;;4.75;2.92;;;;;;;;;;12984138;19;20015;-65
2023/06/06 22:41:08;;;;;;;;;;;;;;;;;;12983548;19;20019;-65
2023/06/06 22:45:29;;;;;;;4.32;2.42;;;;;;;;;;12983114;19;19933;-66
2023/06/06 22:49:47;;;;;;;4.40;2.78;;;;;;;;;;12983423;19;20477;-67
2023/06/06 22:54:05;;;;;;;3.42;2.50;;;;;;;;;;12983251;19;20026;-66
2023/06/06 22:58:24;;;;;;;5.75;2.50;;;;;;;;;;12982668;19;20023;-67
2023/06/06 23:02:41;;;;;;;4.60;2.37;;;;;;;;;;12981270;19;20035;-66
2023/06/06 23:07:00;;;;;;;3.47;1.75;;;;;;;;;;12984527;19;20247;-65
2023/06/06 23:11:18;;;;;;;4.75;2.70;;;;;;;;;;12983469;19;20007;-65
2023/06/06 23:15:38;;;;;;;3.70;2.58;;;;;;;;;;12982109;19;20006;-65
2023/06/06 23:19:57;;;;;;;3.30;2.28;;;;;;;;;;12981743;19;20018;-65
2023/06/06 23:24:14;;;;;;;2.53;2.00;;;;;;;;;;12982073;19;20018;-65
2023/06/06 23:28:33;;;;;;;4.60;1.92;;;;;;;;;;12981545;19;20011;-66
2023/06/06 23:32:51;;;;;;;;;;;;;;;;;;12982253;19;20433;-65
2023/06/06 23:37:08;;;;;;;3.95;2.00;;;;;;;;;;12980453;19;20346;-66
2023/06/06 23:41:27;;;;;;;3.63;2.42;;;;;;;;;;12979748;19;20035;-65
2023/06/06 23:45:46;;;;;;;4.85;1.92;;;;;;;;;;12981641;19;20040;-65
2023/06/06 23:50:05;;;;;;;2.90;2.00;;;;;;;;;;12978497;19;20047;-66
2023/06/06 23:54:24;;;;;;;3.60;2.58;;;;;;;;;;12981930;19;20006;-66
2023/06/06 23:58:43;;;;;;;2.63;1.77;;;;;;;;;;12984590;19;20014;-65
